Terminal Aerodrome Forecast
Issued by NWS Cleveland, OH

Home | Current Version | Previous Version | Graphics & Text | Print | Product List | Glossary On
Versions: 1 2 3 4 5 6 7 8 9 10 11 12 13 14 15
108
FTUS41 KCLE 202341
TAFCAK
TAF
KCAK 202341Z 2100/2124 36008KT P6SM BKN025
     FM210400 02005KT P6SM BKN035
     FM211100 03005KT P6SM BKN070
     FM211500 06008KT P6SM SCT100
     FM212300 07006KT P6SM BKN050=

USA.gov is the U.S. government's official web portal to all federal, state and local government web resources and services.